createdAt,value
2023-01-25T00:00:31.549Z,14.10
2023-01-25T00:02:58.582Z,13.30
2023-01-25T00:05:25.365Z,13.43
2023-01-25T00:07:52.232Z,13.35
2023-01-25T00:10:19.659Z,13.70
2023-01-25T00:12:46.325Z,14.18
2023-01-25T00:15:13.498Z,13.50
2023-01-25T00:17:40.580Z,13.38
2023-01-25T00:20:08.076Z,12.57
2023-01-25T00:22:34.886Z,13.23
2023-01-25T00:25:01.637Z,12.90
2023-01-25T00:27:28.427Z,13.18
2023-01-25T00:29:55.070Z,13.13
2023-01-25T00:32:21.779Z,12.85
2023-01-25T00:34:51.794Z,13.38
2023-01-25T00:37:18.417Z,14.13
2023-01-25T00:39:45.113Z,13.63
2023-01-25T00:42:12.978Z,12.77
2023-01-25T00:44:40.473Z,13.27
2023-01-25T00:47:10.635Z,13.23
2023-01-25T00:49:39.511Z,12.82
2023-01-25T00:52:06.911Z,13.25
2023-01-25T00:54:34.099Z,12.68
2023-01-25T00:57:00.890Z,13.00
2023-01-25T00:59:27.998Z,13.90
2023-01-25T01:01:55.869Z,13.30
2023-01-25T01:04:25.983Z,13.10
2023-01-25T01:06:54.857Z,13.45
2023-01-25T01:09:22.976Z,13.27
2023-01-25T01:11:52.076Z,14.25
2023-01-25T01:14:19.750Z,13.52
2023-01-25T01:16:46.894Z,14.50
2023-01-25T01:19:14.176Z,13.77
2023-01-25T01:21:41.463Z,13.15
2023-01-25T01:24:10.610Z,13.55
2023-01-25T01:26:37.484Z,13.18
2023-01-25T01:29:04.319Z,13.05
2023-01-25T01:31:31.183Z,13.75
2023-01-25T01:34:16.753Z,12.73
2023-01-25T01:36:43.553Z,13.63
2023-01-25T01:39:10.397Z,12.95
2023-01-25T01:41:37.743Z,13.07
2023-01-25T01:44:06.255Z,13.65
2023-01-25T01:46:39.797Z,13.38
2023-01-25T01:49:31.733Z,13.82
2023-01-25T01:52:17.816Z,13.45
2023-01-25T01:54:53.171Z,13.48
2023-01-25T01:57:41.277Z,13.20
2023-01-25T02:00:34.011Z,12.68
2023-01-25T02:03:01.713Z,11.88
2023-01-25T02:05:41.438Z,13.30
2023-01-25T02:08:12.312Z,12.75
2023-01-25T02:10:41.046Z,12.98
2023-01-25T02:13:08.232Z,12.77
2023-01-25T02:15:41.080Z,12.55
2023-01-25T02:18:10.078Z,12.55
2023-01-25T02:20:50.476Z,13.20
2023-01-25T02:23:51.281Z,12.23
2023-01-25T02:26:21.974Z,12.77
2023-01-25T02:29:10.385Z,12.63
2023-01-25T02:31:37.187Z,12.60
2023-01-25T02:34:03.901Z,12.65
2023-01-25T02:36:33.976Z,12.60
2023-01-25T02:39:08.931Z,12.65
2023-01-25T02:41:39.964Z,12.98
2023-01-25T02:44:12.771Z,12.50
2023-01-25T02:46:42.321Z,13.00
2023-01-25T02:49:11.204Z,12.45
2023-01-25T02:51:42.544Z,12.75
2023-01-25T02:54:11.679Z,11.82
2023-01-25T02:56:40.732Z,12.20
2023-01-25T02:59:08.882Z,13.45
2023-01-25T03:01:37.940Z,12.13
2023-01-25T03:04:05.658Z,12.80
2023-01-25T03:06:34.477Z,12.38
2023-01-25T03:09:03.752Z,12.75
2023-01-25T03:11:31.358Z,12.55
2023-01-25T03:13:59.458Z,12.73
2023-01-25T03:16:26.250Z,12.38
2023-01-25T03:18:56.291Z,13.98
2023-01-25T03:21:24.509Z,13.73
2023-01-25T03:23:59.499Z,13.52
2023-01-25T03:26:30.754Z,13.07
2023-01-25T03:29:13.350Z,13.80
2023-01-25T03:31:43.240Z,13.13
2023-01-25T03:34:10.094Z,13.75
2023-01-25T03:36:40.321Z,14.25
2023-01-25T03:39:07.073Z,14.30
2023-01-25T03:41:39.450Z,14.35
2023-01-25T03:44:11.552Z,13.60
2023-01-25T03:46:39.648Z,14.65
2023-01-25T03:49:06.873Z,14.05
2023-01-25T03:51:34.121Z,13.73
2023-01-25T03:54:02.942Z,14.48
2023-01-25T03:56:29.665Z,14.23
2023-01-25T03:59:06.567Z,14.63
2023-01-25T04:01:34.085Z,14.20
2023-01-25T04:04:02.330Z,12.68
2023-01-25T04:06:29.392Z,13.57
2023-01-25T04:08:56.677Z,14.15
2023-01-25T04:11:25.613Z,14.02
2023-01-25T04:13:52.343Z,13.73
2023-01-25T04:16:21.002Z,14.32
2023-01-25T04:19:13.688Z,14.52
2023-01-25T04:21:40.444Z,13.15
2023-01-25T04:24:07.844Z,13.73
2023-01-25T04:26:38.123Z,13.25
2023-01-25T04:29:05.711Z,13.10
2023-01-25T04:31:33.210Z,12.90
2023-01-25T04:34:00.648Z,12.13
2023-01-25T04:36:28.091Z,12.95
2023-01-25T04:38:55.399Z,11.85
2023-01-25T04:41:27.048Z,12.70
2023-01-25T04:43:55.028Z,13.47
2023-01-25T04:46:22.111Z,12.73
2023-01-25T04:48:48.984Z,12.48
2023-01-25T04:51:16.879Z,12.48
2023-01-25T04:53:43.671Z,13.13
2023-01-25T04:56:10.459Z,13.57
2023-01-25T04:58:48.674Z,14.05
2023-01-25T05:01:15.432Z,14.43
2023-01-25T05:03:42.181Z,14.40
2023-01-25T05:06:17.559Z,14.48
2023-01-25T05:08:44.539Z,14.02
2023-01-25T05:11:11.197Z,14.40
2023-01-25T05:13:52.148Z,13.82
2023-01-25T05:16:26.844Z,12.88
2023-01-25T05:18:56.692Z,14.07
2023-01-25T05:21:52.899Z,14.20
2023-01-25T05:24:19.813Z,13.70
2023-01-25T05:27:03.573Z,13.57
2023-01-25T05:29:59.283Z,13.63
2023-01-25T05:32:37.291Z,12.07
2023-01-25T05:35:04.281Z,12.05
2023-01-25T05:37:31.144Z,11.93
2023-01-25T05:40:02.549Z,12.77
2023-01-25T05:42:32.574Z,12.88
2023-01-25T05:44:59.917Z,12.75
2023-01-25T05:47:27.850Z,13.80
2023-01-25T05:49:55.839Z,13.63
2023-01-25T05:52:34.083Z,13.43
2023-01-25T05:55:01.559Z,14.15
2023-01-25T05:57:28.943Z,14.70
2023-01-25T05:59:59.874Z,15.25
2023-01-25T06:02:26.749Z,14.57
2023-01-25T06:04:53.514Z,13.93
2023-01-25T06:07:20.319Z,13.70
2023-01-25T06:09:47.123Z,13.93
2023-01-25T06:12:13.805Z,13.65
2023-01-25T06:14:40.654Z,14.20
2023-01-25T06:17:07.503Z,14.02
2023-01-25T06:19:52.692Z,13.05
2023-01-25T06:22:39.671Z,12.95
2023-01-25T06:25:06.933Z,14.75
2023-01-25T06:27:33.709Z,14.15
2023-01-25T06:30:00.530Z,13.82
2023-01-25T06:32:32.558Z,14.20
2023-01-25T06:34:59.231Z,13.88
2023-01-25T06:37:26.222Z,12.20
2023-01-25T06:39:53.305Z,14.07
2023-01-25T06:42:20.108Z,13.52
2023-01-25T06:44:46.863Z,13.85
2023-01-25T06:47:13.519Z,16.27
2023-01-25T06:49:40.267Z,17.42
2023-01-25T06:52:07.053Z,14.68
2023-01-25T06:54:34.297Z,13.35
2023-01-25T06:57:01.468Z,13.88
2023-01-25T06:59:28.352Z,13.15
2023-01-25T07:01:55.187Z,13.52
2023-01-25T07:04:21.994Z,14.63
2023-01-25T07:06:48.760Z,14.45
2023-01-25T07:09:16.095Z,13.73
2023-01-25T07:11:42.855Z,13.20
2023-01-25T07:14:09.654Z,12.88
2023-01-25T07:16:37.275Z,12.65
2023-01-25T07:19:05.594Z,12.82
2023-01-25T07:21:32.605Z,12.63
2023-01-25T07:24:04.643Z,14.55
2023-01-25T07:26:32.420Z,15.03
2023-01-25T07:28:59.817Z,15.45
2023-01-25T07:31:27.580Z,15.77
2023-01-25T07:33:57.855Z,15.25
2023-01-25T07:36:25.126Z,16.40
2023-01-25T07:38:56.529Z,15.30
2023-01-25T07:41:27.057Z,14.70
2023-01-25T07:43:54.119Z,13.85
2023-01-25T07:46:33.382Z,13.13
2023-01-25T07:49:00.148Z,13.68
2023-01-25T07:51:27.920Z,13.43
2023-01-25T07:54:03.234Z,13.57
2023-01-25T07:56:37.794Z,14.35
2023-01-25T07:59:04.889Z,14.05
2023-01-25T08:01:34.425Z,13.18
2023-01-25T08:04:03.414Z,13.07
2023-01-25T08:06:36.325Z,13.55
2023-01-25T08:09:09.730Z,13.65
2023-01-25T08:11:36.649Z,14.27
2023-01-25T08:14:03.675Z,13.18
2023-01-25T08:16:32.477Z,14.23
2023-01-25T08:19:01.603Z,13.65
2023-01-25T08:21:32.236Z,12.27
2023-01-25T08:24:00.802Z,11.48
2023-01-25T08:26:28.042Z,10.57
2023-01-25T08:28:54.756Z,10.20
2023-01-25T08:31:24.619Z,8.98
2023-01-25T08:33:52.498Z,9.68
2023-01-25T08:36:19.809Z,9.80
2023-01-25T08:38:48.016Z,7.93
2023-01-25T08:41:19.652Z,8.27
2023-01-25T08:43:47.448Z,8.80
2023-01-25T08:46:16.745Z,7.90
2023-01-25T08:48:43.413Z,8.40
2023-01-25T08:51:13.017Z,7.35
2023-01-25T08:53:40.187Z,7.63
2023-01-25T08:56:10.367Z,7.47
2023-01-25T08:58:39.912Z,7.82
2023-01-25T09:01:09.062Z,8.52
2023-01-25T09:03:43.460Z,9.80
2023-01-25T09:06:10.820Z,8.80
2023-01-25T09:08:40.698Z,8.75
2023-01-25T09:11:09.853Z,8.30
2023-01-25T09:13:36.925Z,7.63
2023-01-25T09:16:06.558Z,8.05
2023-01-25T09:18:35.717Z,8.77
2023-01-25T09:21:07.519Z,7.80
2023-01-25T09:23:44.302Z,7.45
2023-01-25T09:26:18.980Z,7.40
2023-01-25T09:28:53.120Z,8.52
2023-01-25T09:31:23.611Z,7.90
2023-01-25T09:34:12.636Z,7.30
2023-01-25T09:36:39.774Z,8.68
2023-01-25T09:39:06.718Z,7.38
2023-01-25T09:41:42.624Z,8.40
2023-01-25T09:44:37.219Z,7.95
2023-01-25T09:47:17.758Z,8.68
2023-01-25T09:50:15.459Z,9.02
2023-01-25T09:53:00.246Z,7.88
2023-01-25T09:55:30.279Z,8.10
2023-01-25T09:58:00.379Z,8.27
2023-01-25T10:00:29.763Z,9.40
2023-01-25T10:02:59.169Z,9.77
2023-01-25T10:05:37.268Z,9.77
2023-01-25T10:08:11.765Z,9.43
2023-01-25T10:10:41.608Z,9.80
2023-01-25T10:13:17.923Z,9.88
2023-01-25T10:15:49.980Z,10.00
2023-01-25T10:18:24.070Z,9.95
2023-01-25T10:21:07.091Z,10.38
2023-01-25T10:24:00.591Z,10.63
2023-01-25T10:26:36.236Z,10.40
2023-01-25T10:29:19.637Z,12.38
2023-01-25T10:31:53.453Z,12.15
2023-01-25T10:34:25.168Z,11.15
2023-01-25T10:36:56.339Z,11.23
2023-01-25T10:39:23.996Z,12.68
2023-01-25T10:42:05.060Z,11.43
2023-01-25T10:44:37.671Z,11.40
2023-01-25T10:47:32.679Z,10.13
2023-01-25T10:50:00.131Z,11.30
2023-01-25T10:52:28.109Z,11.50
2023-01-25T10:55:17.832Z,10.88
2023-01-25T10:57:49.083Z,11.05
2023-01-25T11:00:25.544Z,11.30
2023-01-25T11:02:53.939Z,11.48
2023-01-25T11:05:28.751Z,11.30
2023-01-25T11:07:56.025Z,12.35
2023-01-25T11:10:34.789Z,11.23
2023-01-25T11:13:16.730Z,11.45
2023-01-25T11:15:54.550Z,11.20
2023-01-25T11:18:35.329Z,11.68
2023-01-25T11:21:18.437Z,11.93
2023-01-25T11:24:07.290Z,11.15
2023-01-25T11:26:36.430Z,11.13
2023-01-25T11:29:18.514Z,11.70
2023-01-25T11:31:51.639Z,12.07
2023-01-25T11:34:22.315Z,14.55
2023-01-25T11:37:04.928Z,13.93
2023-01-25T11:39:58.305Z,13.48
2023-01-25T11:42:48.935Z,14.80
2023-01-25T11:46:01.812Z,15.30
2023-01-25T11:48:28.644Z,14.07
2023-01-25T11:51:09.720Z,15.45
2023-01-25T11:53:51.332Z,14.60
2023-01-25T11:56:23.849Z,16.02
2023-01-25T11:59:10.832Z,15.55
2023-01-25T12:02:08.561Z,17.00
2023-01-25T12:04:50.420Z,16.63
2023-01-25T12:07:43.023Z,16.75
2023-01-25T12:10:31.321Z,16.93
2023-01-25T12:13:11.276Z,17.25
2023-01-25T12:15:53.033Z,16.08
2023-01-25T12:18:38.057Z,17.33
2023-01-25T12:21:32.383Z,16.90
2023-01-25T12:24:23.927Z,16.08
2023-01-25T12:27:10.395Z,16.48
2023-01-25T12:29:49.370Z,16.83
2023-01-25T12:32:23.260Z,17.52
2023-01-25T12:35:31.757Z,17.13
2023-01-25T12:38:04.840Z,17.45
2023-01-25T12:43:21.730Z,17.10
2023-01-25T12:45:50.610Z,18.00
2023-01-25T12:48:25.111Z,18.55
2023-01-25T12:50:57.412Z,18.33
2023-01-25T12:53:37.466Z,17.83
2023-01-25T12:56:09.707Z,17.40
2023-01-25T12:58:50.978Z,17.42
2023-01-25T13:01:47.024Z,16.60
2023-01-25T13:04:32.675Z,16.35
2023-01-25T13:07:22.520Z,17.17
2023-01-25T13:09:57.457Z,17.77
2023-01-25T13:12:24.749Z,17.08
2023-01-25T13:14:51.518Z,18.83
2023-01-25T13:17:38.461Z,17.20
2023-01-25T13:20:57.629Z,16.30
2023-01-25T13:23:36.441Z,16.73
2023-01-25T13:26:21.412Z,16.38
2023-01-25T13:28:53.041Z,16.95
2023-01-25T13:31:50.933Z,18.80
2023-01-25T13:34:37.829Z,18.27
2023-01-25T13:37:18.242Z,20.63
2023-01-25T13:39:48.931Z,19.83
2023-01-25T13:42:27.067Z,18.02
2023-01-25T13:45:18.780Z,18.50
2023-01-25T13:48:02.019Z,17.20
2023-01-25T13:53:17.048Z,15.20
2023-01-25T13:55:48.935Z,15.02
2023-01-25T13:58:19.768Z,16.80
2023-01-25T14:00:59.195Z,15.98
2023-01-25T14:03:30.593Z,14.75
2023-01-25T14:06:02.705Z,16.05
2023-01-25T14:08:30.241Z,16.00
2023-01-25T14:10:57.921Z,14.63
2023-01-25T14:13:25.051Z,14.85
2023-01-25T14:16:00.505Z,14.20
2023-01-25T14:18:35.525Z,14.77
2023-01-25T14:21:16.270Z,14.68
2023-01-25T14:23:44.099Z,14.07
2023-01-25T14:26:26.259Z,14.38
2023-01-25T14:29:02.523Z,13.93
2023-01-25T14:31:37.255Z,13.82
2023-01-25T14:34:05.048Z,14.52
2023-01-25T14:36:36.931Z,13.65
2023-01-25T14:39:17.225Z,13.50
2023-01-25T14:41:59.892Z,13.25
2023-01-25T14:47:23.012Z,12.30
2023-01-25T14:49:49.944Z,13.38
2023-01-25T14:52:24.732Z,12.63
2023-01-25T14:54:55.870Z,13.63
2023-01-25T14:57:36.328Z,13.52
2023-01-25T15:00:31.789Z,12.77
2023-01-25T15:03:05.396Z,13.60
2023-01-25T15:05:35.126Z,12.75
2023-01-25T15:08:07.621Z,13.60
2023-01-25T15:10:36.955Z,13.38
2023-01-25T15:13:15.453Z,13.77
2023-01-25T15:16:03.021Z,13.15
2023-01-25T15:18:41.694Z,13.68
2023-01-25T15:21:18.730Z,14.23
2023-01-25T15:23:48.267Z,13.93
2023-01-25T15:26:25.435Z,13.65
2023-01-25T15:28:54.428Z,12.43
2023-01-25T15:31:23.297Z,13.57
2023-01-25T15:33:50.440Z,13.60
2023-01-25T15:36:17.755Z,13.88
2023-01-25T15:38:45.722Z,14.23
2023-01-25T15:41:13.761Z,13.50
2023-01-25T15:43:41.106Z,13.93
2023-01-25T15:46:15.747Z,14.60
2023-01-25T15:48:44.590Z,14.50
2023-01-25T15:51:13.295Z,13.95
2023-01-25T15:53:40.240Z,14.02
2023-01-25T15:56:15.308Z,13.30
2023-01-25T15:58:45.708Z,12.95
2023-01-25T16:01:12.785Z,14.90
2023-01-25T16:03:41.558Z,13.18
2023-01-25T16:09:45.412Z,13.90
2023-01-25T16:12:12.039Z,14.13
2023-01-25T16:14:38.743Z,13.82
2023-01-25T16:17:05.777Z,14.27
2023-01-25T16:19:33.697Z,14.45
2023-01-25T16:22:00.692Z,15.07
2023-01-25T16:24:27.493Z,15.68
2023-01-25T16:26:56.420Z,13.98
2023-01-25T16:29:23.540Z,15.77
2023-01-25T16:31:51.243Z,14.93
2023-01-25T16:34:17.964Z,15.77
2023-01-25T16:36:50.253Z,15.68
2023-01-25T16:39:22.914Z,15.15
2023-01-25T16:41:50.089Z,14.88
2023-01-25T16:44:17.509Z,15.90
2023-01-25T16:46:44.771Z,16.20
2023-01-25T16:49:16.950Z,16.40
2023-01-25T16:51:45.423Z,15.65
2023-01-25T16:54:12.502Z,15.43
2023-01-25T16:56:39.348Z,15.30
2023-01-25T16:59:09.303Z,15.38
2023-01-25T17:01:38.288Z,16.30
2023-01-25T17:04:05.381Z,15.65
2023-01-25T17:06:35.086Z,15.48
2023-01-25T17:09:20.576Z,16.35
2023-01-25T17:11:48.659Z,16.58
2023-01-25T17:14:17.597Z,16.40
2023-01-25T17:16:45.237Z,16.75
2023-01-25T17:19:19.115Z,16.67
2023-01-25T17:21:46.311Z,15.90
2023-01-25T17:24:16.495Z,17.20
2023-01-25T17:26:43.338Z,15.40
2023-01-25T17:29:10.426Z,16.85
2023-01-25T17:31:37.805Z,15.95
2023-01-25T17:34:07.195Z,16.67
2023-01-25T17:36:34.116Z,15.60
2023-01-25T17:39:05.565Z,16.40
2023-01-25T17:41:32.960Z,17.23
2023-01-25T17:43:59.835Z,15.85
2023-01-25T17:46:30.129Z,14.98
2023-01-25T17:48:58.102Z,15.13
2023-01-25T17:51:26.206Z,14.98
2023-01-25T17:53:53.350Z,14.32
2023-01-25T17:56:20.693Z,15.38
2023-01-25T17:58:47.686Z,14.88
2023-01-25T18:01:14.591Z,14.80
2023-01-25T18:03:42.468Z,14.20
2023-01-25T18:06:10.243Z,14.98
2023-01-25T18:08:41.643Z,14.98
2023-01-25T18:11:15.223Z,15.07
2023-01-25T18:13:46.554Z,14.07
2023-01-25T18:16:14.448Z,14.95
2023-01-25T18:18:42.584Z,17.02
2023-01-25T18:21:12.365Z,14.48
2023-01-25T18:23:40.691Z,14.48
2023-01-25T18:26:16.472Z,16.17
2023-01-25T18:28:43.171Z,15.52
2023-01-25T18:31:10.233Z,16.35
2023-01-25T18:33:38.432Z,15.68
2023-01-25T18:36:05.693Z,13.50
2023-01-25T18:38:35.309Z,14.77
2023-01-25T18:41:04.525Z,16.25
2023-01-25T18:43:31.215Z,14.45
2023-01-25T18:45:59.573Z,14.23
2023-01-25T18:48:30.923Z,13.75
2023-01-25T18:51:07.047Z,14.73
2023-01-25T18:53:36.166Z,13.90
2023-01-25T18:56:12.865Z,14.57
2023-01-25T18:58:39.756Z,13.75
2023-01-25T19:01:14.929Z,14.35
2023-01-25T19:03:43.046Z,14.38
2023-01-25T19:06:10.796Z,15.48
2023-01-25T19:08:46.585Z,14.43
2023-01-25T19:11:15.604Z,14.48
2023-01-25T19:13:43.349Z,15.25
2023-01-25T19:16:16.348Z,13.75
2023-01-25T19:18:47.904Z,14.82
2023-01-25T19:21:16.940Z,14.40
2023-01-25T19:23:44.552Z,14.50
2023-01-25T19:26:14.177Z,14.52
2023-01-25T19:28:43.116Z,14.80
2023-01-25T19:31:18.482Z,13.65
2023-01-25T19:33:46.986Z,15.43
2023-01-25T19:36:16.828Z,14.40
2023-01-25T19:38:45.054Z,14.43
2023-01-25T19:41:17.932Z,14.30
2023-01-25T19:43:45.131Z,14.70
2023-01-25T19:46:20.429Z,14.70
2023-01-25T19:48:50.174Z,14.82
2023-01-25T19:51:20.501Z,14.02
2023-01-25T19:53:55.371Z,14.73
2023-01-25T19:56:22.366Z,15.48
2023-01-25T19:58:50.895Z,14.95
2023-01-25T20:01:19.899Z,14.38
2023-01-25T20:03:47.442Z,14.60
2023-01-25T20:06:16.572Z,14.45
2023-01-25T20:08:45.289Z,16.20
2023-01-25T20:11:14.817Z,15.77
2023-01-25T20:13:42.609Z,15.93
2023-01-25T20:16:10.843Z,15.80
2023-01-25T20:18:38.660Z,14.57
2023-01-25T20:21:12.022Z,15.35
2023-01-25T20:23:41.371Z,15.23
2023-01-25T20:26:17.653Z,16.52
2023-01-25T20:28:46.651Z,15.82
2023-01-25T20:31:33.997Z,15.00
2023-01-25T20:34:05.044Z,15.73
2023-01-25T20:36:34.989Z,14.15
2023-01-25T20:39:02.856Z,15.60
2023-01-25T20:41:30.186Z,15.60
2023-01-25T20:44:04.536Z,15.40
2023-01-25T20:46:34.016Z,14.70
2023-01-25T20:49:01.957Z,13.25
2023-01-25T20:51:29.574Z,14.50
2023-01-25T20:53:56.866Z,15.13
2023-01-25T20:56:23.818Z,13.80
2023-01-25T20:58:51.304Z,14.38
2023-01-25T21:01:21.401Z,14.52
2023-01-25T21:03:49.567Z,15.52
2023-01-25T21:06:17.378Z,15.52
2023-01-25T21:08:44.742Z,15.60
2023-01-25T21:11:13.761Z,15.85
2023-01-25T21:13:40.828Z,15.18
2023-01-25T21:16:12.096Z,14.38
2023-01-25T21:18:41.172Z,14.23
2023-01-25T21:21:10.326Z,15.82
2023-01-25T21:23:39.649Z,15.50
2023-01-25T21:26:08.053Z,14.90
2023-01-25T21:28:35.264Z,14.05
2023-01-25T21:31:15.913Z,15.23
2023-01-25T21:33:42.929Z,14.93
2023-01-25T21:36:14.311Z,14.52
2023-01-25T21:38:46.100Z,13.90
2023-01-25T21:41:21.480Z,14.25
2023-01-25T21:44:07.891Z,14.93
2023-01-25T21:46:34.796Z,14.05
2023-01-25T21:49:22.413Z,15.07
2023-01-25T21:51:51.372Z,14.70
2023-01-25T21:54:25.925Z,13.93
2023-01-25T21:56:55.133Z,14.43
2023-01-25T21:59:22.835Z,14.25
2023-01-25T22:01:50.544Z,12.75
2023-01-25T22:04:19.086Z,14.75
2023-01-25T22:06:48.581Z,14.65
2023-01-25T22:09:15.683Z,16.05
2023-01-25T22:11:45.952Z,14.95
2023-01-25T22:14:16.988Z,14.57
2023-01-25T22:16:43.722Z,15.05
2023-01-25T22:19:10.326Z,13.90
2023-01-25T22:21:37.104Z,14.38
2023-01-25T22:24:05.478Z,13.30
2023-01-25T22:26:42.893Z,14.52
2023-01-25T22:29:12.527Z,13.43
2023-01-25T22:31:39.260Z,13.23
2023-01-25T22:34:05.914Z,13.65
2023-01-25T22:36:32.763Z,12.80
2023-01-25T22:39:02.475Z,13.10
2023-01-25T22:41:32.130Z,13.60
2023-01-25T22:43:59.000Z,12.70
2023-01-25T22:46:28.668Z,13.82
2023-01-25T22:48:56.118Z,13.55
2023-01-25T22:51:29.054Z,14.63
2023-01-25T22:53:57.055Z,14.13
2023-01-25T22:56:27.259Z,14.07
2023-01-25T22:58:54.394Z,14.88
2023-01-25T23:01:26.255Z,13.63
2023-01-25T23:03:53.625Z,14.65
2023-01-25T23:06:26.183Z,15.07
2023-01-25T23:08:57.392Z,14.25
2023-01-25T23:11:25.693Z,15.07
2023-01-25T23:14:12.281Z,15.85
2023-01-25T23:16:38.957Z,14.82
2023-01-25T23:19:05.704Z,14.80
2023-01-25T23:21:32.587Z,15.55
2023-01-25T23:24:03.426Z,16.60
2023-01-25T23:26:37.821Z,14.10
2023-01-25T23:29:11.008Z,14.80
2023-01-25T23:34:06.977Z,15.13
2023-01-25T23:36:36.145Z,14.57
2023-01-25T23:39:03.181Z,15.88
2023-01-25T23:41:30.351Z,15.68
2023-01-25T23:43:58.053Z,16.08
2023-01-25T23:46:25.625Z,15.70
2023-01-25T23:48:52.659Z,15.30
2023-01-25T23:51:20.395Z,16.75
2023-01-25T23:53:47.870Z,16.25
2023-01-25T23:56:20.174Z,15.27
2023-01-25T23:58:47.896Z,15.55
